sensor_id;sensor_type;location;lat;lon;timestamp;P1;durP1;ratioP1;P2;durP2;ratioP2
73697;SDS011;62004;42.566;23.164;2023-02-22T00:01:50;887.30;;;828.08;;
73697;SDS011;62004;42.566;23.164;2023-02-22T00:04:34;891.45;;;831.17;;
73697;SDS011;62004;42.566;23.164;2023-02-22T00:06:59;884.57;;;825.47;;
73697;SDS011;62004;42.566;23.164;2023-02-22T00:09:26;894.85;;;834.20;;
73697;SDS011;62004;42.566;23.164;2023-02-22T00:11:51;880.60;;;821.70;;
73697;SDS011;62004;42.566;23.164;2023-02-22T00:14:16;891.97;;;831.37;;
73697;SDS011;62004;42.566;23.164;2023-02-22T00:16:44;909.20;;;847.10;;
73697;SDS011;62004;42.566;23.164;2023-02-22T00:19:09;903.92;;;840.75;;
73697;SDS011;62004;42.566;23.164;2023-02-22T00:21:34;897.77;;;835.40;;
73697;SDS011;62004;42.566;23.164;2023-02-22T00:24:01;887.20;;;826.47;;
73697;SDS011;62004;42.566;23.164;2023-02-22T00:26:41;899.90;;;837.72;;
73697;SDS011;62004;42.566;23.164;2023-02-22T00:29:06;906.13;;;843.80;;
73697;SDS011;62004;42.566;23.164;2023-02-22T00:31:35;895.65;;;834.28;;
73697;SDS011;62004;42.566;23.164;2023-02-22T00:34:01;885.90;;;825.55;;
73697;SDS011;62004;42.566;23.164;2023-02-22T00:36:26;884.87;;;824.63;;
73697;SDS011;62004;42.566;23.164;2023-02-22T00:38:51;900.93;;;839.57;;
73697;SDS011;62004;42.566;23.164;2023-02-22T00:41:16;895.07;;;834.57;;
73697;SDS011;62004;42.566;23.164;2023-02-22T00:43:42;902.05;;;839.45;;
73697;SDS011;62004;42.566;23.164;2023-02-22T00:46:07;895.27;;;833.73;;
73697;SDS011;62004;42.566;23.164;2023-02-22T00:48:32;892.47;;;831.07;;
73697;SDS011;62004;42.566;23.164;2023-02-22T00:50:57;881.67;;;822.13;;
73697;SDS011;62004;42.566;23.164;2023-02-22T00:53:23;905.40;;;843.33;;
73697;SDS011;62004;42.566;23.164;2023-02-22T00:55:49;886.63;;;826.75;;
73697;SDS011;62004;42.566;23.164;2023-02-22T00:58:14;882.78;;;822.83;;
73697;SDS011;62004;42.566;23.164;2023-02-22T01:00:40;897.93;;;836.47;;
73697;SDS011;62004;42.566;23.164;2023-02-22T01:03:06;895.08;;;834.53;;
73697;SDS011;62004;42.566;23.164;2023-02-22T01:05:32;900.13;;;838.58;;
73697;SDS011;62004;42.566;23.164;2023-02-22T01:07:58;898.83;;;837.13;;
73697;SDS011;62004;42.566;23.164;2023-02-22T01:10:26;902.90;;;840.88;;
73697;SDS011;62004;42.566;23.164;2023-02-22T01:12:51;900.08;;;839.22;;
73697;SDS011;62004;42.566;23.164;2023-02-22T01:15:19;896.40;;;835.53;;
73697;SDS011;62004;42.566;23.164;2023-02-22T01:17:48;908.33;;;845.70;;
73697;SDS011;62004;42.566;23.164;2023-02-22T01:20:14;902.35;;;839.95;;
73697;SDS011;62004;42.566;23.164;2023-02-22T01:22:40;890.42;;;829.80;;
73697;SDS011;62004;42.566;23.164;2023-02-22T01:25:06;896.92;;;836.05;;
73697;SDS011;62004;42.566;23.164;2023-02-22T01:27:32;899.90;;;838.92;;
73697;SDS011;62004;42.566;23.164;2023-02-22T01:29:58;895.85;;;835.30;;
73697;SDS011;62004;42.566;23.164;2023-02-22T01:32:23;902.00;;;841.37;;
73697;SDS011;62004;42.566;23.164;2023-02-22T01:34:48;897.90;;;837.50;;
73697;SDS011;62004;42.566;23.164;2023-02-22T01:37:13;908.37;;;846.47;;
73697;SDS011;62004;42.566;23.164;2023-02-22T01:39:39;892.63;;;832.87;;
73697;SDS011;62004;42.566;23.164;2023-02-22T01:42:04;883.57;;;824.70;;
73697;SDS011;62004;42.566;23.164;2023-02-22T01:44:34;900.73;;;839.27;;
73697;SDS011;62004;42.566;23.164;2023-02-22T01:47:00;896.05;;;835.95;;
73697;SDS011;62004;42.566;23.164;2023-02-22T01:49:40;887.28;;;828.72;;
73697;SDS011;62004;42.566;23.164;2023-02-22T01:52:07;897.63;;;837.65;;
73697;SDS011;62004;42.566;23.164;2023-02-22T01:54:35;886.72;;;828.00;;
73697;SDS011;62004;42.566;23.164;2023-02-22T01:57:03;896.58;;;836.10;;
73697;SDS011;62004;42.566;23.164;2023-02-22T01:59:31;884.88;;;826.53;;
73697;SDS011;62004;42.566;23.164;2023-02-22T02:01:57;888.83;;;830.25;;
73697;SDS011;62004;42.566;23.164;2023-02-22T02:04:23;897.38;;;838.33;;
73697;SDS011;62004;42.566;23.164;2023-02-22T02:06:50;902.63;;;842.22;;
73697;SDS011;62004;42.566;23.164;2023-02-22T02:09:25;893.75;;;834.17;;
73697;SDS011;62004;42.566;23.164;2023-02-22T02:11:54;886.25;;;827.67;;
73697;SDS011;62004;42.566;23.164;2023-02-22T02:14:20;878.90;;;821.13;;
73697;SDS011;62004;42.566;23.164;2023-02-22T02:16:48;898.80;;;839.73;;
73697;SDS011;62004;42.566;23.164;2023-02-22T02:24:38;899.50;;;838.60;;
73697;SDS011;62004;42.566;23.164;2023-02-22T02:35:01;847.70;;;786.20;;
73697;SDS011;62004;42.566;23.164;2023-02-22T02:38:11;810.92;;;750.13;;
73697;SDS011;62004;42.566;23.164;2023-02-22T02:42:52;894.20;;;831.97;;
73697;SDS011;62004;42.566;23.164;2023-02-22T02:45:21;886.70;;;825.03;;
73697;SDS011;62004;42.566;23.164;2023-02-22T02:47:49;895.92;;;834.47;;
73697;SDS011;62004;42.566;23.164;2023-02-22T02:50:19;894.10;;;832.65;;
73697;SDS011;62004;42.566;23.164;2023-02-22T02:52:46;886.88;;;825.08;;
73697;SDS011;62004;42.566;23.164;2023-02-22T02:55:12;877.88;;;815.50;;
73697;SDS011;62004;42.566;23.164;2023-02-22T02:57:37;862.95;;;799.72;;
73697;SDS011;62004;42.566;23.164;2023-02-22T03:00:06;869.95;;;806.28;;
73697;SDS011;62004;42.566;23.164;2023-02-22T03:05:35;882.67;;;820.95;;
73697;SDS011;62004;42.566;23.164;2023-02-22T03:10:43;906.67;;;843.30;;
73697;SDS011;62004;42.566;23.164;2023-02-22T03:13:14;893.08;;;831.63;;
73697;SDS011;62004;42.566;23.164;2023-02-22T03:18:14;905.38;;;843.30;;
73697;SDS011;62004;42.566;23.164;2023-02-22T03:20:43;907.28;;;843.63;;
73697;SDS011;62004;42.566;23.164;2023-02-22T03:25:39;911.83;;;849.27;;
73697;SDS011;62004;42.566;23.164;2023-02-22T03:28:09;915.20;;;852.38;;
73697;SDS011;62004;42.566;23.164;2023-02-22T03:30:44;909.63;;;847.72;;
73697;SDS011;62004;42.566;23.164;2023-02-22T03:33:13;908.67;;;848.10;;
73697;SDS011;62004;42.566;23.164;2023-02-22T03:35:44;899.65;;;839.75;;
73697;SDS011;62004;42.566;23.164;2023-02-22T03:38:12;908.13;;;847.15;;
73697;SDS011;62004;42.566;23.164;2023-02-22T03:40:41;900.40;;;840.22;;
73697;SDS011;62004;42.566;23.164;2023-02-22T03:43:09;915.60;;;853.10;;
73697;SDS011;62004;42.566;23.164;2023-02-22T03:45:36;909.28;;;848.13;;
73697;SDS011;62004;42.566;23.164;2023-02-22T03:48:03;912.78;;;850.47;;
73697;SDS011;62004;42.566;23.164;2023-02-22T03:50:34;904.08;;;843.70;;
73697;SDS011;62004;42.566;23.164;2023-02-22T03:53:00;909.40;;;847.42;;
73697;SDS011;62004;42.566;23.164;2023-02-22T03:55:25;899.13;;;837.53;;
73697;SDS011;62004;42.566;23.164;2023-02-22T03:57:59;883.78;;;823.22;;
73697;SDS011;62004;42.566;23.164;2023-02-22T04:00:27;886.08;;;823.30;;
73697;SDS011;62004;42.566;23.164;2023-02-22T04:02:53;792.50;;;732.63;;
73697;SDS011;62004;42.566;23.164;2023-02-22T04:05:19;846.55;;;784.33;;
73697;SDS011;62004;42.566;23.164;2023-02-22T04:07:44;844.80;;;782.63;;
73697;SDS011;62004;42.566;23.164;2023-02-22T04:10:10;838.38;;;776.88;;
73697;SDS011;62004;42.566;23.164;2023-02-22T04:12:36;835.45;;;775.47;;
73697;SDS011;62004;42.566;23.164;2023-02-22T04:15:01;848.20;;;787.42;;
73697;SDS011;62004;42.566;23.164;2023-02-22T04:17:27;848.17;;;786.72;;
73697;SDS011;62004;42.566;23.164;2023-02-22T04:19:52;841.93;;;782.03;;
73697;SDS011;62004;42.566;23.164;2023-02-22T04:22:17;854.60;;;793.97;;
73697;SDS011;62004;42.566;23.164;2023-02-22T04:24:42;854.10;;;794.20;;
73697;SDS011;62004;42.566;23.164;2023-02-22T04:27:09;858.08;;;797.38;;
73697;SDS011;62004;42.566;23.164;2023-02-22T04:29:34;852.92;;;793.25;;
73697;SDS011;62004;42.566;23.164;2023-02-22T04:32:00;874.07;;;812.37;;
73697;SDS011;62004;42.566;23.164;2023-02-22T04:34:25;870.10;;;810.17;;
73697;SDS011;62004;42.566;23.164;2023-02-22T04:36:50;874.73;;;814.80;;
73697;SDS011;62004;42.566;23.164;2023-02-22T04:39:16;877.83;;;817.17;;
73697;SDS011;62004;42.566;23.164;2023-02-22T04:41:41;888.95;;;826.72;;
73697;SDS011;62004;42.566;23.164;2023-02-22T04:44:06;879.73;;;819.23;;
73697;SDS011;62004;42.566;23.164;2023-02-22T04:46:32;888.90;;;827.80;;
73697;SDS011;62004;42.566;23.164;2023-02-22T04:48:57;886.60;;;825.97;;
73697;SDS011;62004;42.566;23.164;2023-02-22T04:51:23;902.30;;;840.55;;
73697;SDS011;62004;42.566;23.164;2023-02-22T04:53:48;884.90;;;825.28;;
73697;SDS011;62004;42.566;23.164;2023-02-22T04:56:15;882.13;;;822.87;;
73697;SDS011;62004;42.566;23.164;2023-02-22T04:58:41;886.92;;;827.05;;
73697;SDS011;62004;42.566;23.164;2023-02-22T05:01:06;877.23;;;818.03;;
73697;SDS011;62004;42.566;23.164;2023-02-22T05:03:32;891.65;;;831.80;;
73697;SDS011;62004;42.566;23.164;2023-02-22T05:05:57;883.00;;;823.77;;
73697;SDS011;62004;42.566;23.164;2023-02-22T05:08:22;887.88;;;826.80;;
73697;SDS011;62004;42.566;23.164;2023-02-22T05:10:48;886.50;;;826.73;;
73697;SDS011;62004;42.566;23.164;2023-02-22T05:13:13;889.93;;;829.07;;
73697;SDS011;62004;42.566;23.164;2023-02-22T05:15:38;887.20;;;828.00;;
73697;SDS011;62004;42.566;23.164;2023-02-22T05:18:03;894.80;;;833.70;;
73697;SDS011;62004;42.566;23.164;2023-02-22T05:20:30;890.43;;;831.00;;
73697;SDS011;62004;42.566;23.164;2023-02-22T05:22:56;884.25;;;824.92;;
73697;SDS011;62004;42.566;23.164;2023-02-22T05:25:21;894.78;;;833.78;;
73697;SDS011;62004;42.566;23.164;2023-02-22T05:27:50;890.33;;;830.67;;
73697;SDS011;62004;42.566;23.164;2023-02-22T05:30:16;895.65;;;835.00;;
73697;SDS011;62004;42.566;23.164;2023-02-22T05:32:41;885.50;;;826.53;;
73697;SDS011;62004;42.566;23.164;2023-02-22T05:35:06;884.20;;;825.50;;
73697;SDS011;62004;42.566;23.164;2023-02-22T05:37:32;890.47;;;831.40;;
73697;SDS011;62004;42.566;23.164;2023-02-22T05:39:57;885.67;;;827.08;;
73697;SDS011;62004;42.566;23.164;2023-02-22T05:42:23;890.05;;;830.20;;
73697;SDS011;62004;42.566;23.164;2023-02-22T05:44:48;896.55;;;836.60;;
73697;SDS011;62004;42.566;23.164;2023-02-22T05:47:14;896.63;;;836.43;;
73697;SDS011;62004;42.566;23.164;2023-02-22T05:49:39;886.87;;;827.80;;
73697;SDS011;62004;42.566;23.164;2023-02-22T05:52:04;885.60;;;826.97;;
73697;SDS011;62004;42.566;23.164;2023-02-22T05:54:29;881.23;;;822.70;;
73697;SDS011;62004;42.566;23.164;2023-02-22T05:56:55;879.30;;;819.90;;
73697;SDS011;62004;42.566;23.164;2023-02-22T05:59:20;864.20;;;803.60;;
73697;SDS011;62004;42.566;23.164;2023-02-22T06:01:45;853.10;;;791.57;;
73697;SDS011;62004;42.566;23.164;2023-02-22T06:04:10;842.60;;;779.50;;
73697;SDS011;62004;42.566;23.164;2023-02-22T06:06:35;848.33;;;782.43;;
73697;SDS011;62004;42.566;23.164;2023-02-22T06:09:01;838.93;;;773.50;;
73697;SDS011;62004;42.566;23.164;2023-02-22T06:11:26;840.93;;;774.00;;
73697;SDS011;62004;42.566;23.164;2023-02-22T06:13:51;845.37;;;774.97;;
73697;SDS011;62004;42.566;23.164;2023-02-22T06:16:17;828.97;;;759.78;;
73697;SDS011;62004;42.566;23.164;2023-02-22T06:18:43;816.63;;;746.70;;
73697;SDS011;62004;42.566;23.164;2023-02-22T06:21:08;819.80;;;748.33;;
73697;SDS011;62004;42.566;23.164;2023-02-22T06:23:33;841.45;;;766.30;;
73697;SDS011;62004;42.566;23.164;2023-02-22T06:25:59;845.83;;;771.33;;
73697;SDS011;62004;42.566;23.164;2023-02-22T06:28:24;836.53;;;762.03;;
73697;SDS011;62004;42.566;23.164;2023-02-22T06:30:50;837.17;;;760.67;;
73697;SDS011;62004;42.566;23.164;2023-02-22T06:33:15;828.93;;;752.27;;
73697;SDS011;62004;42.566;23.164;2023-02-22T06:35:40;818.72;;;742.17;;
73697;SDS011;62004;42.566;23.164;2023-02-22T06:38:06;822.75;;;743.75;;
73697;SDS011;62004;42.566;23.164;2023-02-22T06:40:31;823.65;;;744.13;;
73697;SDS011;62004;42.566;23.164;2023-02-22T06:42:57;817.13;;;736.40;;
73697;SDS011;62004;42.566;23.164;2023-02-22T06:45:22;825.65;;;740.00;;
73697;SDS011;62004;42.566;23.164;2023-02-22T06:47:48;831.55;;;742.22;;
73697;SDS011;62004;42.566;23.164;2023-02-22T06:50:18;852.60;;;746.28;;
73697;SDS011;62004;42.566;23.164;2023-02-22T06:52:43;862.22;;;736.00;;
73697;SDS011;62004;42.566;23.164;2023-02-22T06:55:08;899.37;;;743.33;;
73697;SDS011;62004;42.566;23.164;2023-02-22T06:57:33;943.77;;;753.57;;
73697;SDS011;62004;42.566;23.164;2023-02-22T06:59:59;980.27;;;755.27;;
73697;SDS011;62004;42.566;23.164;2023-02-22T07:02:24;1009.27;;;745.53;;
73697;SDS011;62004;42.566;23.164;2023-02-22T07:04:49;1021.40;;;740.87;;
73697;SDS011;62004;42.566;23.164;2023-02-22T07:07:14;1034.10;;;735.63;;
73697;SDS011;62004;42.566;23.164;2023-02-22T07:09:40;1072.03;;;741.93;;
73697;SDS011;62004;42.566;23.164;2023-02-22T07:12:05;1097.23;;;742.03;;
73697;SDS011;62004;42.566;23.164;2023-02-22T07:14:31;1117.63;;;742.63;;
73697;SDS011;62004;42.566;23.164;2023-02-22T07:16:57;1124.03;;;738.33;;
73697;SDS011;62004;42.566;23.164;2023-02-22T07:19:22;1145.80;;;744.57;;
73697;SDS011;62004;42.566;23.164;2023-02-22T07:21:48;1171.95;;;742.40;;
73697;SDS011;62004;42.566;23.164;2023-02-22T07:24:14;1170.13;;;747.00;;
73697;SDS011;62004;42.566;23.164;2023-02-22T07:26:40;1170.90;;;746.43;;
73697;SDS011;62004;42.566;23.164;2023-02-22T07:29:05;1184.55;;;742.05;;
73697;SDS011;62004;42.566;23.164;2023-02-22T07:31:37;1204.97;;;755.53;;
73697;SDS011;62004;42.566;23.164;2023-02-22T07:34:02;1177.65;;;740.45;;
73697;SDS011;62004;42.566;23.164;2023-02-22T07:36:27;1195.90;;;755.60;;
73697;SDS011;62004;42.566;23.164;2023-02-22T07:38:53;1187.73;;;746.87;;
73697;SDS011;62004;42.566;23.164;2023-02-22T07:41:18;1193.90;;;738.87;;
73697;SDS011;62004;42.566;23.164;2023-02-22T07:43:43;1183.63;;;728.57;;
73697;SDS011;62004;42.566;23.164;2023-02-22T07:46:08;1204.77;;;726.13;;
73697;SDS011;62004;42.566;23.164;2023-02-22T07:48:33;1209.10;;;728.33;;
73697;SDS011;62004;42.566;23.164;2023-02-22T07:50:59;1208.53;;;729.37;;
73697;SDS011;62004;42.566;23.164;2023-02-22T07:53:27;1218.70;;;728.87;;
73697;SDS011;62004;42.566;23.164;2023-02-22T07:55:57;1229.78;;;734.50;;
73697;SDS011;62004;42.566;23.164;2023-02-22T07:58:23;1234.57;;;729.05;;
73697;SDS011;62004;42.566;23.164;2023-02-22T08:00:48;1225.95;;;725.45;;
73697;SDS011;62004;42.566;23.164;2023-02-22T08:03:14;1228.40;;;722.57;;
73697;SDS011;62004;42.566;23.164;2023-02-22T08:05:44;1216.57;;;718.22;;
73697;SDS011;62004;42.566;23.164;2023-02-22T08:08:10;1208.40;;;719.55;;
73697;SDS011;62004;42.566;23.164;2023-02-22T08:10:35;1205.10;;;718.60;;
73697;SDS011;62004;42.566;23.164;2023-02-22T08:13:01;1188.50;;;718.80;;
73697;SDS011;62004;42.566;23.164;2023-02-22T08:17:52;1137.53;;;705.47;;
73697;SDS011;62004;42.566;23.164;2023-02-22T08:20:17;1103.33;;;699.30;;
73697;SDS011;62004;42.566;23.164;2023-02-22T08:22:43;1062.00;;;691.20;;
73697;SDS011;62004;42.566;23.164;2023-02-22T08:25:08;1046.10;;;683.90;;
73697;SDS011;62004;42.566;23.164;2023-02-22T08:27:34;1012.70;;;678.25;;
73697;SDS011;62004;42.566;23.164;2023-02-22T08:29:59;986.78;;;678.20;;
73697;SDS011;62004;42.566;23.164;2023-02-22T08:32:24;967.80;;;675.30;;
73697;SDS011;62004;42.566;23.164;2023-02-22T08:34:50;973.47;;;679.87;;
73697;SDS011;62004;42.566;23.164;2023-02-22T08:37:15;970.70;;;682.57;;
73697;SDS011;62004;42.566;23.164;2023-02-22T08:39:41;978.65;;;689.83;;
73697;SDS011;62004;42.566;23.164;2023-02-22T08:42:06;970.95;;;695.97;;
73697;SDS011;62004;42.566;23.164;2023-02-22T08:44:33;969.63;;;702.08;;
73697;SDS011;62004;42.566;23.164;2023-02-22T08:46:59;987.65;;;714.00;;
73697;SDS011;62004;42.566;23.164;2023-02-22T08:49:24;982.03;;;714.23;;
73697;SDS011;62004;42.566;23.164;2023-02-22T08:51:49;978.37;;;710.70;;
73697;SDS011;62004;42.566;23.164;2023-02-22T08:54:14;973.90;;;712.43;;
73697;SDS011;62004;42.566;23.164;2023-02-22T08:56:41;990.30;;;719.35;;
73697;SDS011;62004;42.566;23.164;2023-02-22T08:59:07;980.50;;;721.60;;
73697;SDS011;62004;42.566;23.164;2023-02-22T09:01:32;1000.80;;;734.00;;
73697;SDS011;62004;42.566;23.164;2023-02-22T09:03:58;988.25;;;737.17;;
73697;SDS011;62004;42.566;23.164;2023-02-22T09:06:24;994.50;;;737.17;;
73697;SDS011;62004;42.566;23.164;2023-02-22T09:08:49;976.63;;;738.67;;
73697;SDS011;62004;42.566;23.164;2023-02-22T09:11:14;974.13;;;740.37;;
73697;SDS011;62004;42.566;23.164;2023-02-22T09:13:39;995.10;;;748.92;;
73697;SDS011;62004;42.566;23.164;2023-02-22T09:16:05;975.30;;;743.03;;
73697;SDS011;62004;42.566;23.164;2023-02-22T09:18:30;983.33;;;750.90;;
73697;SDS011;62004;42.566;23.164;2023-02-22T09:20:56;996.45;;;750.08;;
73697;SDS011;62004;42.566;23.164;2023-02-22T09:23:21;997.10;;;755.05;;
73697;SDS011;62004;42.566;23.164;2023-02-22T09:25:48;999.75;;;754.45;;
73697;SDS011;62004;42.566;23.164;2023-02-22T09:28:13;1012.97;;;755.40;;
73697;SDS011;62004;42.566;23.164;2023-02-22T09:30:38;1003.73;;;751.30;;
73697;SDS011;62004;42.566;23.164;2023-02-22T09:33:05;1014.27;;;757.93;;
73697;SDS011;62004;42.566;23.164;2023-02-22T09:35:33;1007.25;;;757.83;;
73697;SDS011;62004;42.566;23.164;2023-02-22T09:38:00;994.92;;;753.65;;
73697;SDS011;62004;42.566;23.164;2023-02-22T09:40:27;989.55;;;751.17;;
73697;SDS011;62004;42.566;23.164;2023-02-22T09:43:01;991.22;;;750.58;;
73697;SDS011;62004;42.566;23.164;2023-02-22T09:45:31;981.22;;;753.95;;
73697;SDS011;62004;42.566;23.164;2023-02-22T09:47:57;986.60;;;755.28;;
73697;SDS011;62004;42.566;23.164;2023-02-22T09:50:24;979.08;;;757.25;;
73697;SDS011;62004;42.566;23.164;2023-02-22T09:53:09;975.60;;;761.85;;
73697;SDS011;62004;42.566;23.164;2023-02-22T09:55:39;953.60;;;759.42;;
73697;SDS011;62004;42.566;23.164;2023-02-22T09:58:09;938.67;;;755.50;;
73697;SDS011;62004;42.566;23.164;2023-02-22T10:00:38;927.40;;;757.15;;
73697;SDS011;62004;42.566;23.164;2023-02-22T10:05:36;934.63;;;761.22;;
73697;SDS011;62004;42.566;23.164;2023-02-22T10:08:04;916.72;;;752.50;;
73697;SDS011;62004;42.566;23.164;2023-02-22T10:10:34;911.33;;;752.15;;
73697;SDS011;62004;42.566;23.164;2023-02-22T10:13:03;911.20;;;751.53;;
73697;SDS011;62004;42.566;23.164;2023-02-22T10:20:30;922.77;;;753.73;;
73697;SDS011;62004;42.566;23.164;2023-02-22T10:25:45;903.03;;;754.40;;
73697;SDS011;62004;42.566;23.164;2023-02-22T10:30:42;909.47;;;759.00;;
73697;SDS011;62004;42.566;23.164;2023-02-22T10:35:36;893.42;;;754.83;;
73697;SDS011;62004;42.566;23.164;2023-02-22T10:38:10;885.35;;;745.72;;
73697;SDS011;62004;42.566;23.164;2023-02-22T10:40:37;897.88;;;754.75;;
73697;SDS011;62004;42.566;23.164;2023-02-22T10:43:03;885.63;;;747.40;;
73697;SDS011;62004;42.566;23.164;2023-02-22T10:45:30;866.50;;;751.45;;
73697;SDS011;62004;42.566;23.164;2023-02-22T10:48:01;864.90;;;753.83;;
73697;SDS011;62004;42.566;23.164;2023-02-22T10:50:32;875.40;;;751.78;;
73697;SDS011;62004;42.566;23.164;2023-02-22T10:52:58;871.45;;;749.70;;
73697;SDS011;62004;42.566;23.164;2023-02-22T10:55:24;866.43;;;748.00;;
73697;SDS011;62004;42.566;23.164;2023-02-22T10:57:50;868.17;;;750.40;;
73697;SDS011;62004;42.566;23.164;2023-02-22T11:00:21;870.65;;;750.00;;
73697;SDS011;62004;42.566;23.164;2023-02-22T11:02:55;871.63;;;759.08;;
73697;SDS011;62004;42.566;23.164;2023-02-22T11:05:37;870.33;;;754.45;;
73697;SDS011;62004;42.566;23.164;2023-02-22T11:10:39;859.53;;;757.63;;
73697;SDS011;62004;42.566;23.164;2023-02-22T11:15:50;874.17;;;755.90;;
73697;SDS011;62004;42.566;23.164;2023-02-22T11:18:23;859.95;;;747.33;;
73697;SDS011;62004;42.566;23.164;2023-02-22T11:20:49;863.08;;;752.33;;
73697;SDS011;62004;42.566;23.164;2023-02-22T11:23:22;864.40;;;755.72;;
73697;SDS011;62004;42.566;23.164;2023-02-22T11:25:48;869.67;;;758.97;;
73697;SDS011;62004;42.566;23.164;2023-02-22T11:28:25;882.05;;;764.22;;
73697;SDS011;62004;42.566;23.164;2023-02-22T11:30:55;880.45;;;758.88;;
73697;SDS011;62004;42.566;23.164;2023-02-22T11:33:21;884.58;;;763.63;;
73697;SDS011;62004;42.566;23.164;2023-02-22T11:35:48;871.70;;;764.58;;
73697;SDS011;62004;42.566;23.164;2023-02-22T11:41:03;880.80;;;769.45;;
73697;SDS011;62004;42.566;23.164;2023-02-22T11:43:28;877.38;;;768.42;;
73697;SDS011;62004;42.566;23.164;2023-02-22T11:46:00;863.67;;;767.60;;
73697;SDS011;62004;42.566;23.164;2023-02-22T11:48:27;875.40;;;773.90;;
73697;SDS011;62004;42.566;23.164;2023-02-22T11:50:56;874.63;;;774.97;;
73697;SDS011;62004;42.566;23.164;2023-02-22T11:58:38;873.47;;;776.40;;
73697;SDS011;62004;42.566;23.164;2023-02-22T12:06:45;871.33;;;774.33;;
73697;SDS011;62004;42.566;23.164;2023-02-22T12:09:24;875.42;;;779.47;;
73697;SDS011;62004;42.566;23.164;2023-02-22T12:17:13;871.60;;;774.85;;
73697;SDS011;62004;42.566;23.164;2023-02-22T12:19:43;872.33;;;774.40;;
73697;SDS011;62004;42.566;23.164;2023-02-22T12:24:46;878.05;;;780.95;;
73697;SDS011;62004;42.566;23.164;2023-02-22T12:27:14;880.33;;;777.40;;
73697;SDS011;62004;42.566;23.164;2023-02-22T12:29:43;874.08;;;769.90;;
73697;SDS011;62004;42.566;23.164;2023-02-22T12:34:56;868.50;;;771.08;;
73697;SDS011;62004;42.566;23.164;2023-02-22T12:40:13;877.22;;;775.42;;
73697;SDS011;62004;42.566;23.164;2023-02-22T12:45:10;875.73;;;767.40;;
73697;SDS011;62004;42.566;23.164;2023-02-22T12:47:42;875.50;;;771.80;;
73697;SDS011;62004;42.566;23.164;2023-02-22T12:50:11;889.17;;;774.97;;
73697;SDS011;62004;42.566;23.164;2023-02-22T12:55:07;874.17;;;777.72;;
73697;SDS011;62004;42.566;23.164;2023-02-22T13:00:05;874.22;;;775.88;;
73697;SDS011;62004;42.566;23.164;2023-02-22T13:02:35;867.75;;;772.20;;
73697;SDS011;62004;42.566;23.164;2023-02-22T13:05:02;874.55;;;774.47;;
73697;SDS011;62004;42.566;23.164;2023-02-22T13:07:44;873.73;;;771.80;;
73697;SDS011;62004;42.566;23.164;2023-02-22T13:15:09;874.10;;;778.00;;
73697;SDS011;62004;42.566;23.164;2023-02-22T13:23:20;865.63;;;771.47;;
73697;SDS011;62004;42.566;23.164;2023-02-22T13:35:59;863.93;;;768.00;;
73697;SDS011;62004;42.566;23.164;2023-02-22T13:49:00;862.97;;;767.00;;
73697;SDS011;62004;42.566;23.164;2023-02-22T13:51:36;862.08;;;765.20;;
73697;SDS011;62004;42.566;23.164;2023-02-22T13:54:15;862.97;;;763.92;;
73697;SDS011;62004;42.566;23.164;2023-02-22T13:56:42;849.00;;;755.10;;
73697;SDS011;62004;42.566;23.164;2023-02-22T13:59:19;846.22;;;752.55;;
73697;SDS011;62004;42.566;23.164;2023-02-22T14:01:46;853.17;;;759.00;;
73697;SDS011;62004;42.566;23.164;2023-02-22T14:04:19;860.22;;;757.42;;
73697;SDS011;62004;42.566;23.164;2023-02-22T14:06:44;862.30;;;760.47;;
73697;SDS011;62004;42.566;23.164;2023-02-22T14:09:18;860.05;;;758.42;;
73697;SDS011;62004;42.566;23.164;2023-02-22T14:12:01;854.03;;;756.28;;
73697;SDS011;62004;42.566;23.164;2023-02-22T14:14:26;845.60;;;752.40;;
73697;SDS011;62004;42.566;23.164;2023-02-22T14:17:37;847.00;;;752.77;;
73697;SDS011;62004;42.566;23.164;2023-02-22T14:19:37;848.88;;;755.55;;
73697;SDS011;62004;42.566;23.164;2023-02-22T14:22:03;856.03;;;757.97;;
73697;SDS011;62004;42.566;23.164;2023-02-22T14:24:40;854.80;;;758.35;;
73697;SDS011;62004;42.566;23.164;2023-02-22T14:27:09;854.03;;;758.50;;
73697;SDS011;62004;42.566;23.164;2023-02-22T14:29:35;852.75;;;758.22;;
73697;SDS011;62004;42.566;23.164;2023-02-22T14:34:58;852.27;;;756.77;;
73697;SDS011;62004;42.566;23.164;2023-02-22T14:37:25;848.30;;;754.33;;
73697;SDS011;62004;42.566;23.164;2023-02-22T14:40:09;844.35;;;751.35;;
73697;SDS011;62004;42.566;23.164;2023-02-22T14:42:43;846.03;;;752.25;;
73697;SDS011;62004;42.566;23.164;2023-02-22T14:52:39;850.25;;;757.00;;
73697;SDS011;62004;42.566;23.164;2023-02-22T15:00:07;850.03;;;756.38;;
73697;SDS011;62004;42.566;23.164;2023-02-22T15:02:44;849.47;;;756.47;;
73697;SDS011;62004;42.566;23.164;2023-02-22T15:05:11;839.20;;;748.33;;
73697;SDS011;62004;42.566;23.164;2023-02-22T15:07:37;835.28;;;744.72;;
73697;SDS011;62004;42.566;23.164;2023-02-22T15:12:51;844.35;;;752.17;;
73697;SDS011;62004;42.566;23.164;2023-02-22T15:15:19;843.95;;;751.65;;
73697;SDS011;62004;42.566;23.164;2023-02-22T15:17:51;850.90;;;758.50;;
73697;SDS011;62004;42.566;23.164;2023-02-22T15:20:18;848.47;;;756.10;;
73697;SDS011;62004;42.566;23.164;2023-02-22T15:22:44;843.22;;;752.40;;
73697;SDS011;62004;42.566;23.164;2023-02-22T15:25:10;848.72;;;756.78;;
73697;SDS011;62004;42.566;23.164;2023-02-22T15:27:36;841.50;;;751.47;;
73697;SDS011;62004;42.566;23.164;2023-02-22T15:30:04;855.67;;;763.45;;
73697;SDS011;62004;42.566;23.164;2023-02-22T15:32:34;847.40;;;756.40;;
73697;SDS011;62004;42.566;23.164;2023-02-22T15:35:13;845.75;;;754.80;;
73697;SDS011;62004;42.566;23.164;2023-02-22T15:37:38;839.67;;;750.85;;
73697;SDS011;62004;42.566;23.164;2023-02-22T15:40:08;848.67;;;759.27;;
73697;SDS011;62004;42.566;23.164;2023-02-22T15:42:45;851.80;;;762.38;;
73697;SDS011;62004;42.566;23.164;2023-02-22T15:45:17;846.33;;;757.88;;
73697;SDS011;62004;42.566;23.164;2023-02-22T15:47:47;847.92;;;759.58;;
73697;SDS011;62004;42.566;23.164;2023-02-22T15:55:22;848.95;;;761.55;;
73697;SDS011;62004;42.566;23.164;2023-02-22T15:57:49;856.13;;;767.08;;
73697;SDS011;62004;42.566;23.164;2023-02-22T16:00:19;860.33;;;771.50;;
73697;SDS011;62004;42.566;23.164;2023-02-22T16:05:10;852.97;;;767.93;;
73697;SDS011;62004;42.566;23.164;2023-02-22T16:07:37;847.70;;;762.55;;